CYRQ

Trois-Rivieres Airport

Trois-Rivieres, , Canada
METAR CYRQ 230800Z AUTO 00000KT 9SM CLR M18/M20 A3071 RMK SLP408
Observed Flight Rules
Feb-23 @ 08:00 UTC (22 minutes ago) Visual Flight Rules
Wind Visibility Clouds
Calm 9 miles
  • Clear skies
Temperatures Readings
Current -18°C / 0°F
Dewpoint -20°C / -4°F
Humidity 84%
Altimeter 30.71" Hg
Pressure 1040.8 hPa
Elevation 61
METAR CYRQ 230800Z AUTO 00000KT 9SM CLR M18/M20 A3071 RMK SLP408
Observed Flight Rules
Feb-23 @ 08:00 UTC
(22 minutes ago)
VFR
Wind Visibility
Calm 9 miles
Clouds
  • Clear skies
Temperature Dewpoint
-18°C / 0°F -20°C / -4°F
Humidity Altimeter Pressure
84% 30.71" Hg 1040.8 hPa